Elk Creek, NY

12:25 PM EDT on May 23, 2015 (GMT -0400)
Schenectady County | Change Station
CLOSE
Current Station
Airport
Location: Schenectady,
Elevation: 377 ft
Nearby Weather Stations

Elev 377 ft 42.85 °N, 73.93 °W | Updated 30 minutes ago

Clear
Clear
54 °F
Feels Like 54 °F
N
14
Wind Variable Wind from NW
Gusts 21 mph

Today
High -- | Low -- °F
--% Chance of Precip.
Yesterday
High -- | Low -- °F
Precip. -- in
5:30 AM 8:22 PM
Waxing Crescent, 31% visible
Pressure 30.39 in
Visibility 10.0 miles
Clouds Clear
Dew Point 21 °F
Humidity 28%
Rainfall 0.00 in
Snow Depth Not available.
UV 11 out of 12
Pollen 9.10 out of 12
Air Quality Not available.
Flu Activity Widespread
METAR KSCH 231555Z 31012G18KT 10SM SKC 12/M06 A3039

More Conditions Fewer Conditions

Pressure 30.39 in
Visibility 10.0 miles
Clouds Clear
Dew Point 21 °F
Humidity 28%
Rainfall 0.00 in
Snow Depth Not available.
UV 11 out of 12
Pollen 9.10 out of 12
Air Quality Not available.
Flu Activity Widespread
METAR KSCH 231555Z 31012G18KT 10SM SKC 12/M06 A3039

More Conditions Fewer Conditions

10-Day Weather Forecast

Almanac

Astronomy

May. 23, 2015 Rise Set
Actual Time 5:30 AM EDT 8:22 PM EDT
Civil Twilight 4:56 AM EDT 8:55 PM EDT
Nautical Twilight 4:14 AM EDT 9:37 PM EDT
Astronomical Twilight 3:26 AM EDT 10:26 PM EDT
Moon 10:44 AM EDT 12:11 AM EDT
Length of Visible Light 15h 58m
Length of Day
14h 52m
Tomorrow will be 1m 42s longer.
Waxing Crescent, 31% of the Moon is Illuminated
Today
Waxing Crescent
May 25
First Quarter
Jun 2
Full
Jun 9
Last Quarter
Jun 16
New

Today's Extremes

State Highs State Lows

Community

WunderPhotos

Upload Photos

1,823,512 photos uploaded!

Nearby

Air Quality

  Air Quality AQ Index Pollutant
Saturday Good
OZONE
Saturday Good
PM2.5
Sunday Good
OZONE
Sunday Good
PM2.5
Monday Good
OZONE
Monday Good
PM2.5
Tuesday Good
OZONE
Tuesday Good
PM2.5

Snow Depth

Station Depth Elevation
No new snow has been reported.

Earthquake Activity

City Distance Mag. Time & Date
No recent earthquake activity has been reported nearby.
Minimum magnitude displayed is 2.5.

Coastal Water Temperatures

Place Temperature
No Stations Reporting

Nearby Weather Stations